Here is the Quick Look data you requested

The Data originates at the National Weather Service, and is made available here by the UAlbany Department of Atmospheric and Environmental Sciences

Surface Observations

KCVG 261452Z 30006KT 10SM SCT037 20/12 A3018 RMK AO2 SLP212 T02000117 50005=
KCVG 261552Z 30013G19KT 10SM FEW043 BKN055 22/09 A3017 RMK AO2 SLP207 T02170089=
KCVG 261652Z 31012G18KT 10SM FEW050 BKN065 22/09 A3016 RMK AO2 SLP206 T02220094=
KCVG 261752Z 30012KT 10SM FEW055 BKN070 22/09 A3015 RMK AO2 SLP203 T02170089
 10228 20156 56008=
KCVG 261852Z 30010KT 10SM FEW055 BKN075 23/09 A3014 RMK AO2 SLP200 T02280094=
KCVG 261952Z 28012G21KT 10SM SCT065 BKN080 23/09 A3012 RMK AO2 SLP191 T02330089=
KCVG 262052Z 27010G18KT 10SM FEW060 BKN080 BKN250 23/10 A3010 RMK AO2 SLP187
 MDT CU N T02330100 58016=
KCVG 262152Z 27010KT 10SM FEW070 BKN095 BKN250 22/10 A3009 RMK AO2 SLP183 MDT
 CU SW T02170100=
KCVG 262252Z 28009KT 10SM SCT070 BKN110 21/11 A3007 RMK AO2 SLP178 T02110106=
KCVG 262352Z 27007KT 10SM BKN100 BKN120 20/09 A3008 RMK AO2 SLP178 T02000094
 10239 20200 55008=
KCVG 270052Z 26005KT 10SM BKN100 BKN250 19/09 A3006 RMK AO2 SLP174 T01940094=
KCVG 270152Z 25006KT 10SM SCT090 BKN200 19/10 A3006 RMK AO2 SLP174 T01890100=
KCVG 270252Z 26007KT 10SM BKN120 18/09 A3008 RMK AO2 SLP178 T01780094 55000=
KCVG 270352Z 30009KT 10SM SCT085 BKN130 18/09 A3009 RMK AO2 SLP181 T01780094=
KCVG 270452Z 23004KT 10SM FEW080 FEW110 16/09 A3010 RMK AO2 SLP185 T01560094
 402390117=
KCVG 270552Z 23004KT 10SM FEW100 15/09 A3009 RMK AO2 SLP184 T01500094 10200
 20144 50006=
KCVG 270652Z 34005KT 10SM CLR 13/10 A3010 RMK AO2 SLP185 T01330100=
KCVG 270752Z 26006KT 10SM CLR 13/09 A3009 RMK AO2 SLP182 T01280094=
KCVG 270852Z 20003KT 10SM CLR 11/09 A3009 RMK AO2 SLP186 T01060094 53001=
KCVG 270952Z 22004KT 10SM CLR 11/09 A3012 RMK AO2 SLP193 T01110094=
KCVG 271052Z 26003KT 10SM CLR 12/10 A3013 RMK AO2 SLP198 T01220100=
KCVG 271152Z 26005KT 10SM CLR 14/11 A3014 RMK AO2 SLP201 T01390111 10150 20106
 51015=
KCVG 271252Z 30004KT 10SM CLR 17/11 A3015 RMK AO2 SLP204 T01670111=
KCVG 271352Z 34005KT 10SM FEW032 18/09 A3016 RMK AO2 SLP208 T01780089=
KCVG 271452Z 33008KT 10SM FEW037 19/10 A3016 RMK AO2 SLP208 T01890100 50007=